Stalldalen, Sweden

4:28 AM CEST on September 19, 2014 (GMT +0200)
resident area | Change Station
CLOSE
Current Station
Personal Weather Station
Location: Ludvika, DALARNAS LäN
Elevation: 584 ft
Nearby Weather Stations

Elev 584 ft 60.13 °N, 15.18 °E | Updated 3 seconds ago

Patches of Fog
Patches Fog
43.2 °F
Feels Like 43 °F
N
0.0
Wind Variable Wind from North
Gusts 0.7 mph

Today
High -- | Low -- °F
--% Chance of Precip.
Yesterday
High -- | Low -- °F
Precip. -- in
6:36 AM 7:09 PM
Waning Crescent, 22% visible
Pressure 30.15 in
Visibility 6.2 miles
Clouds
Windchill 43 °F
Dew Point 43 °F
Humidity 98%
Rainfall 0.00 in
Snow Depth Not available.
UV Not available.
Pollen Not available.
Air Quality Not available.
Flu Activity Not available.
METAR ESSD 190220Z AUTO 26003KT 9999 BCFG NCD 04/04 Q1021

More Conditions Fewer Conditions

Pressure 30.15 in
Visibility 6.2 miles
Clouds
Windchill 43 °F
Dew Point 43 °F
Humidity 98%
Rainfall 0.00 in
Snow Depth Not available.
UV Not available.
Pollen Not available.
Air Quality Not available.
Flu Activity Not available.
METAR ESSD 190220Z AUTO 26003KT 9999 BCFG NCD 04/04 Q1021

More Conditions Fewer Conditions

10-Day Weather Forecast

Almanac

Astronomy

Sep. 19, 2014 Rise Set
Actual Time 6:36 AM CEST 7:09 PM CEST
Civil Twilight 5:55 AM CEST 7:51 PM CEST
Nautical Twilight 5:04 AM CEST 8:42 PM CEST
Astronomical Twilight 4:07 AM CEST 9:37 PM CEST
Moon 1:11 AM CEST 5:15 PM CEST
Length of Visible Light 13h 56m
Length of Day
12h 32m
Tomorrow will be 5m 22s shorter.
Waning Crescent, 22% of the Moon is Illuminated
Sep 18
Waning Crescent
Sep 24
New
Oct 1
First Quarter
Oct 8
Full
Oct 15
Last Quarter

Yesterday's Extremes

Country Highs Country Lows

Community

WunderPhotos

Upload Photos

1,754,542 photos uploaded!

Nearby

Snow Depth

Not available.

Earthquake Activity

City Distance Mag. Time & Date
No recent earthquake activity has been reported nearby.
Minimum magnitude displayed is 2.5.

Coastal Water Temperatures

Place Temperature
No Stations Reporting

Nearby Weather Stations